createdAt,value
2023-10-26T00:01:23.346Z,110768.94
2023-10-26T00:06:28.288Z,110502.19
2023-10-26T00:11:31.933Z,109702.03
2023-10-26T00:16:35.471Z,109435.34
2023-10-26T00:21:40.773Z,108635.41
2023-10-26T00:26:44.317Z,108052.22
2023-10-26T00:31:47.851Z,106998.50
2023-10-26T00:36:52.753Z,106292.72
2023-10-26T00:41:57.361Z,105310.25
2023-10-26T00:47:02.513Z,104937.72
2023-10-26T00:52:07.815Z,104269.75
2023-10-26T00:57:12.417Z,103974.28
2023-10-26T01:02:17.279Z,104051.25
2023-10-26T01:07:22.438Z,104171.94
2023-10-26T01:12:27.498Z,104126.16
2023-10-26T01:17:32.195Z,105133.34
2023-10-26T01:22:37.087Z,105510.06
2023-10-26T01:27:40.715Z,106026.25
2023-10-26T01:32:44.308Z,106511.31
2023-10-26T01:37:49.228Z,106715.34
2023-10-26T01:42:52.986Z,106586.28
2023-10-26T01:47:56.636Z,106332.28
2023-10-26T01:53:01.640Z,106607.09
2023-10-26T01:58:05.254Z,106975.59
2023-10-26T02:03:08.865Z,107102.63
2023-10-26T02:08:13.788Z,107279.59
2023-10-26T02:13:17.392Z,107398.31
2023-10-26T02:18:21.122Z,107754.41
2023-10-26T02:23:27.087Z,108635.41
2023-10-26T02:28:30.623Z,108189.66
2023-10-26T02:33:34.235Z,107725.25
2023-10-26T02:38:39.345Z,107712.75
2023-10-26T02:43:42.848Z,107989.72
2023-10-26T02:48:46.390Z,108102.19
2023-10-26T02:53:51.492Z,107835.63
2023-10-26T02:58:57.014Z,107208.81
2023-10-26T03:04:00.789Z,107354.56
2023-10-26T03:09:06.286Z,107190.06
2023-10-26T03:14:09.867Z,107237.97
2023-10-26T03:19:13.470Z,106369.75
2023-10-26T03:24:18.391Z,106061.66
2023-10-26T03:29:22.597Z,105716.13
2023-10-26T03:34:26.149Z,105395.56
2023-10-26T03:39:31.481Z,105043.84
2023-10-26T03:44:35.077Z,104525.69
2023-10-26T03:49:38.975Z,104261.41
2023-10-26T03:54:44.098Z,102649.16
2023-10-26T03:59:47.869Z,101357.75
2023-10-26T04:04:51.788Z,101120.72
2023-10-26T04:09:56.780Z,100638.38
2023-10-26T04:15:00.364Z,100459.59
2023-10-26T04:20:04.065Z,100958.53
2023-10-26T04:25:09.859Z,100721.53
2023-10-26T04:30:13.974Z,101037.53
2023-10-26T04:35:17.604Z,100451.28
2023-10-26T04:40:22.753Z,100549.00
2023-10-26T04:45:26.469Z,100147.78
2023-10-26T04:50:31.307Z,99644.78
2023-10-26T04:55:36.303Z,99420.34
2023-10-26T05:00:40.472Z,99085.75
2023-10-26T05:05:44.149Z,99048.34
2023-10-26T05:10:49.132Z,97934.66
2023-10-26T05:15:52.767Z,98219.28
2023-10-26T05:20:57.636Z,99588.69
2023-10-26T05:26:02.590Z,100349.44
2023-10-26T05:31:06.283Z,100609.28
2023-10-26T05:36:10.508Z,101675.88
2023-10-26T05:41:15.435Z,103287.75
2023-10-26T05:46:19.181Z,104221.88
2023-10-26T05:51:22.839Z,104203.16
2023-10-26T05:56:27.748Z,104163.63
2023-10-26T06:01:32.000Z,103321.03
2023-10-26T06:06:36.053Z,102884.19
2023-10-26T06:11:41.436Z,102320.53
2023-10-26T06:16:44.966Z,103248.22
2023-10-26T06:21:48.601Z,103701.72
2023-10-26T06:26:53.546Z,103368.88
2023-10-26T06:31:57.156Z,104026.28
2023-10-26T06:37:00.727Z,104904.41
2023-10-26T06:42:06.119Z,105177.03
2023-10-26T06:47:10.381Z,105512.13
2023-10-26T06:52:14.038Z,105865.97
2023-10-26T06:57:18.979Z,106469.69
2023-10-26T07:02:22.496Z,106894.41
2023-10-26T07:07:26.985Z,106673.72
2023-10-26T07:12:34.880Z,106440.53
2023-10-26T07:17:38.543Z,105920.09
2023-10-26T07:22:43.726Z,105824.34
2023-10-26T07:27:48.627Z,105824.34
2023-10-26T07:32:52.247Z,107923.09
2023-10-26T07:38:09.079Z,109968.72
2023-10-26T07:43:20.950Z,110768.94
2023-10-26T07:48:24.680Z,111035.72
2023-10-26T07:53:29.692Z,111569.28
2023-10-26T07:58:34.746Z,111836.13
2023-10-26T08:03:38.528Z,111302.50
2023-10-26T08:08:42.164Z,110768.94
2023-10-26T08:13:47.245Z,110502.19
2023-10-26T08:18:50.915Z,110235.44
2023-10-26T08:23:54.774Z,109702.03
2023-10-26T08:34:06.355Z,108902.03
2023-10-26T08:39:10.029Z,108635.41
2023-10-26T08:44:15.164Z,108202.16
2023-10-26T08:49:18.901Z,107310.84
2023-10-26T08:54:22.621Z,106750.75
2023-10-26T08:59:29.620Z,105678.66
2023-10-26T09:04:33.863Z,105714.03
2023-10-26T09:09:46.662Z,107433.69
2023-10-26T09:15:00.717Z,109099.94
2023-10-26T09:20:17.943Z,108789.53
2023-10-26T09:25:21.759Z,108831.22
2023-10-26T09:30:31.269Z,109168.69
2023-10-26T09:35:35.788Z,109968.72
2023-10-26T09:40:39.910Z,110502.19
2023-10-26T09:45:45.352Z,110502.19
2023-10-26T09:50:50.967Z,109968.72
2023-10-26T09:55:54.761Z,109435.34
2023-10-26T10:00:59.702Z,109968.72
2023-10-26T10:06:05.176Z,109435.34
2023-10-26T10:11:19.308Z,108033.47
2023-10-26T10:16:55.403Z,105391.41
2023-10-26T10:21:59.242Z,102730.28
2023-10-26T10:27:13.517Z,103364.72
2023-10-26T10:32:52.399Z,103133.81
2023-10-26T10:38:23.906Z,101480.41
2023-10-26T10:43:32.461Z,102757.31
2023-10-26T10:48:38.120Z,102967.41
2023-10-26T10:53:41.774Z,101305.75
2023-10-26T10:58:45.346Z,101488.72
2023-10-26T11:03:51.036Z,101478.34
2023-10-26T11:08:54.677Z,101131.09
2023-10-26T11:14:09.545Z,100303.69
2023-10-26T11:19:14.555Z,100422.19
2023-10-26T11:24:20.264Z,103025.63
2023-10-26T11:29:23.926Z,102582.59
2023-10-26T11:34:29.216Z,101445.06
2023-10-26T11:39:32.894Z,101921.25
2023-10-26T11:44:36.431Z,100237.19
2023-10-26T11:49:42.997Z,97947.13
2023-10-26T11:54:53.861Z,98055.16
2023-10-26T11:59:59.171Z,97367.53
2023-10-26T12:05:04.755Z,96609.44
2023-10-26T12:10:09.077Z,95496.41
2023-10-26T12:15:13.180Z,94927.56
2023-10-26T12:20:18.411Z,94213.50
2023-10-26T12:25:22.088Z,94020.47
2023-10-26T12:30:25.714Z,93545.19
2023-10-26T12:35:30.696Z,94776.00
2023-10-26T12:40:34.323Z,93283.72
2023-10-26T12:45:38.250Z,93819.16
2023-10-26T12:50:43.180Z,93763.09
2023-10-26T12:55:46.705Z,93474.66
2023-10-26T13:00:50.526Z,91860.44
2023-10-26T13:05:55.418Z,91385.44
2023-10-26T13:10:58.993Z,90101.75
2023-10-26T13:16:02.588Z,90132.88
2023-10-26T13:21:08.231Z,91221.59
2023-10-26T13:26:12.101Z,91356.41
2023-10-26T13:31:15.766Z,92308.53
2023-10-26T13:36:20.709Z,92410.19
2023-10-26T13:41:24.923Z,94242.53
2023-10-26T13:46:29.378Z,95326.16
2023-10-26T13:51:34.509Z,95205.75
2023-10-26T13:56:38.018Z,95330.31
2023-10-26T14:01:42.121Z,95892.97
2023-10-26T14:06:47.217Z,95953.19
2023-10-26T14:11:50.770Z,96578.28
2023-10-26T14:16:54.385Z,95778.78
2023-10-26T14:21:59.398Z,94236.31
2023-10-26T14:27:03.072Z,92791.97
2023-10-26T14:32:07.128Z,92341.75
2023-10-26T14:37:13.051Z,91279.66
2023-10-26T14:42:17.288Z,89670.50
2023-10-26T14:47:20.847Z,87670.31
2023-10-26T14:52:25.781Z,85579.97
2023-10-26T14:57:29.306Z,83596.31
2023-10-26T15:02:32.962Z,81696.38
2023-10-26T15:07:38.227Z,81400.50
2023-10-26T15:12:41.819Z,80347.53
2023-10-26T15:17:45.610Z,81228.78
2023-10-26T15:22:50.518Z,79857.31
2023-10-26T15:27:55.351Z,81603.25
2023-10-26T15:33:00.483Z,82689.69
2023-10-26T15:38:05.449Z,83496.94
2023-10-26T15:43:09.083Z,85097.44
2023-10-26T15:48:12.733Z,85406.00
2023-10-26T15:53:20.161Z,86122.66
2023-10-26T15:58:23.757Z,87148.16
2023-10-26T16:03:30.701Z,87247.59
2023-10-26T16:08:37.286Z,87595.72
2023-10-26T16:13:41.695Z,88283.75
2023-10-26T16:18:47.555Z,88586.34
2023-10-26T16:23:52.632Z,90116.28
2023-10-26T16:28:56.199Z,90958.19
2023-10-26T16:33:59.805Z,91748.44
2023-10-26T16:39:05.578Z,91914.38
2023-10-26T16:44:09.386Z,92227.63
2023-10-26T16:49:12.988Z,92856.28
2023-10-26T16:54:17.898Z,92619.75
2023-10-26T16:59:21.427Z,93188.28
2023-10-26T17:04:24.972Z,93043.03
2023-10-26T17:09:29.996Z,93281.66
2023-10-26T17:14:33.520Z,93464.25
2023-10-26T17:19:37.032Z,93458.03
2023-10-26T17:24:42.073Z,93397.88
2023-10-26T17:29:48.394Z,92910.22
2023-10-26T17:34:52.045Z,93084.53
2023-10-26T17:39:57.020Z,93101.13
2023-10-26T17:45:00.631Z,93368.81
2023-10-26T17:50:04.277Z,93289.94
2023-10-26T17:55:12.937Z,93209.03
2023-10-26T18:00:17.251Z,93096.97
2023-10-26T18:05:21.864Z,93092.81
2023-10-26T18:10:26.763Z,93115.66
2023-10-26T18:15:30.309Z,93163.38
2023-10-26T18:20:33.879Z,93543.13
2023-10-26T18:25:38.753Z,93669.72
2023-10-26T18:30:42.431Z,94217.63
2023-10-26T18:35:46.062Z,94643.16
2023-10-26T18:40:50.928Z,94360.84
2023-10-26T18:45:58.819Z,95097.78
2023-10-26T18:51:02.715Z,95500.56
2023-10-26T18:56:14.243Z,95120.63
2023-10-26T19:01:18.038Z,95994.72
2023-10-26T19:06:21.666Z,96632.28
2023-10-26T19:11:26.574Z,97126.59
2023-10-26T19:16:30.205Z,97571.09
2023-10-26T19:21:33.811Z,98090.47
2023-10-26T19:26:38.695Z,98454.06
2023-10-26T19:31:42.385Z,98967.31
2023-10-26T19:36:45.985Z,99112.75
2023-10-26T19:41:50.967Z,99158.47
2023-10-26T19:46:54.590Z,98578.72
2023-10-26T19:51:58.261Z,98828.06
2023-10-26T19:57:03.783Z,98896.66
2023-10-26T20:02:07.734Z,98959.00
2023-10-26T20:07:11.657Z,98986.00
2023-10-26T20:12:16.574Z,99744.56
2023-10-26T20:17:20.180Z,100357.75
2023-10-26T20:22:23.719Z,100877.47
2023-10-26T20:27:28.605Z,101262.09
2023-10-26T20:32:33.979Z,101447.16
2023-10-26T20:37:40.563Z,101436.75
2023-10-26T20:42:46.505Z,100573.94
2023-10-26T20:47:50.218Z,100241.34
2023-10-26T20:52:53.741Z,99757.03
2023-10-26T20:57:58.961Z,98811.44
2023-10-26T21:03:02.578Z,98186.03
2023-10-26T21:08:06.579Z,97905.56
2023-10-26T21:13:11.663Z,97652.13
2023-10-26T21:18:15.364Z,97647.97
2023-10-26T21:23:18.857Z,97635.50
2023-10-26T21:28:24.828Z,97180.59
2023-10-26T21:33:28.469Z,96596.97
2023-10-26T21:38:32.025Z,96617.72
2023-10-26T21:43:36.964Z,96748.56
2023-10-26T21:48:40.944Z,96972.88
2023-10-26T21:53:44.634Z,96920.97
2023-10-26T21:58:51.218Z,96611.50
2023-10-26T22:04:17.911Z,96711.19
2023-10-26T22:09:22.066Z,96545.03
2023-10-26T22:14:27.068Z,96287.53
2023-10-26T22:19:31.003Z,96333.22
2023-10-26T22:24:34.505Z,95650.03
2023-10-26T22:29:39.441Z,95502.63
2023-10-26T22:34:43.061Z,95508.88
2023-10-26T22:39:46.879Z,96092.34
2023-10-26T22:44:52.151Z,96792.19
2023-10-26T22:49:56.846Z,97294.84
2023-10-26T22:55:01.160Z,98208.88
2023-10-26T23:00:07.630Z,98354.31
2023-10-26T23:05:11.176Z,99135.63
2023-10-26T23:10:14.749Z,99624.00
2023-10-26T23:15:19.719Z,100135.31
2023-10-26T23:20:23.245Z,100840.03
2023-10-26T23:25:26.883Z,101775.69
2023-10-26T23:30:31.818Z,102243.59
2023-10-26T23:35:38.884Z,102378.78
2023-10-26T23:40:42.524Z,102749.00
2023-10-26T23:45:47.662Z,103260.69
2023-10-26T23:50:52.031Z,103115.09
2023-10-26T23:55:55.571Z,102846.75
